»·PEaware :: N520MP KTOA-KRNM

N520MP :: KTOA-KRNM

FLIGHT INFORMATION

Flight Status: Arrived
Operator: Privately registered:
United States
More flights under this callsign
Pilot: Manuel P. (9695)
Aircraft: BOMBARDIER BD-100 CHALLENGER 300
(CL30)
More flights by this aircraft type
Origin: KTOA Zamperini
United States
Destination: KRNM Ramona
United States
More flights between these airports :: More routes between these airports
Route: LIMBO V64 SLI V23 OCN V208 JLI
File this flight plan on PilotEdge
Remarks: SCTN22 TEC Route
Altitude:
(Current/Filed)
11,000ft
Speed:
(Current/Filed)
400kts
Departed: 20-Oct-17 04:29 PM
Arrived: 20-Oct-17 05:02 PM
Distance/Time
Traveled:
85nm/0:32
Distance/Time
To Go:
Arrived

Flight Plot

Page will automatically refresh every two minutes.


Map Options




Map Legend


Flown Route
Filed Route
Departure Airport
Arrival Airport
Navaid (VOR, NDB)
Fix

Horizontal Profiles

Position Reports

Time Latitude Longitude Heading Altitude Ground
Speed
20-Oct-17 15:58 33.802007 -118.341975 219 110ft 0kts
20-Oct-17 15:59 33.802007 -118.341975 219 110ft 0kts
20-Oct-17 16:00 33.802007 -118.341975 219 110ft 0kts
20-Oct-17 16:01 33.802007 -118.341975 219 110ft 0kts
20-Oct-17 16:02 33.802007 -118.341975 219 110ft 0kts
20-Oct-17 16:03 33.802007 -118.341975 219 110ft 0kts
20-Oct-17 16:04 33.802007 -118.341975 219 110ft 0kts
20-Oct-17 16:05 33.802007 -118.341975 219 110ft 0kts
20-Oct-17 16:06 33.802007 -118.341975 219 110ft 0kts
20-Oct-17 16:07 33.802007 -118.341975 219 110ft 0kts
20-Oct-17 16:08 33.802007 -118.341975 219 110ft 0kts
20-Oct-17 16:09 33.802007 -118.341975 219 110ft 0kts
20-Oct-17 16:10 33.802007 -118.341975 219 110ft 0kts
20-Oct-17 16:11 33.802007 -118.341975 219 110ft 0kts
20-Oct-17 16:12 33.802007 -118.341975 219 110ft 0kts
20-Oct-17 16:13 33.802007 -118.341975 219 110ft 0kts
20-Oct-17 16:14 33.802007 -118.341975 219 110ft 0kts
20-Oct-17 16:15 33.802007 -118.341975 219 110ft 0kts
20-Oct-17 16:16 33.802007 -118.341975 219 110ft 0kts
20-Oct-17 16:17 33.802007 -118.341975 219 110ft 0kts
20-Oct-17 16:18 33.802007 -118.341975 219 110ft 0kts
20-Oct-17 16:19 33.802007 -118.341975 219 110ft 0kts
20-Oct-17 16:20 33.802007 -118.341975 219 110ft 0kts
20-Oct-17 16:21 33.802013 -118.342259 307 110ft 5kts
20-Oct-17 16:22 33.802637 -118.341464 128 110ft 10kts
20-Oct-17 16:23 33.800374 -118.338059 128 110ft 15kts
20-Oct-17 16:24 33.798113 -118.334642 124 110ft 7kts
20-Oct-17 16:25 33.799052 -118.333335 37 110ft 0kts
20-Oct-17 16:26 33.799600 -118.332977 335 109ft 8kts
20-Oct-17 16:27 33.805178 -118.341449 289 110ft 11kts
20-Oct-17 16:28 33.805848 -118.343745 290 109ft 5kts
20-Oct-17 16:29 33.804965 -118.344992 128 110ft 10kts
20-Oct-17 16:30 33.802255 -118.340908 128 110ft 13kts
20-Oct-17 16:31 33.799650 -118.336973 131 109ft 9kts
20-Oct-17 16:32 33.798047 -118.334459 96 110ft 6kts
20-Oct-17 16:33 33.799197 -118.333202 39 110ft 8kts
20-Oct-17 16:34 33.809763 -118.347651 308 591ft 173kts
20-Oct-17 16:35 33.848864 -118.401010 308 2983ft 238kts
20-Oct-17 16:36 33.876173 -118.469420 240 4397ft 236kts
20-Oct-17 16:37 33.811820 -118.483711 182 6472ft 253kts
20-Oct-17 16:38 33.744560 -118.465410 126 8415ft 289kts
20-Oct-17 16:39 33.746571 -118.366285 78 10880ft 319kts
20-Oct-17 16:40 33.758611 -118.266279 79 10994ft 404kts
20-Oct-17 16:41 33.776624 -118.111964 80 10978ft 390kts
20-Oct-17 16:42 33.741079 -118.017692 132 10989ft 390kts
20-Oct-17 16:43 33.667854 -117.921459 136 10987ft 401kts
20-Oct-17 16:44 33.577679 -117.812585 138 10987ft 397kts
20-Oct-17 16:45 33.512736 -117.735810 138 10987ft 396kts
20-Oct-17 16:46 33.434719 -117.644206 138 10988ft 396kts
20-Oct-17 16:47 33.357043 -117.553380 138 11017ft 395kts
20-Oct-17 16:48 33.279387 -117.462812 138 11018ft 395kts
20-Oct-17 16:49 33.236302 -117.347181 100 11019ft 400kts
20-Oct-17 16:50 33.217893 -117.216752 97 11011ft 399kts
20-Oct-17 16:51 33.202159 -117.090943 97 9933ft 347kts
20-Oct-17 16:52 33.190241 -116.991634 99 7915ft 273kts
20-Oct-17 16:53 33.180305 -116.910375 99 7124ft 248kts
20-Oct-17 16:54 33.168661 -116.815435 98 7975ft 309kts
20-Oct-17 16:55 33.157393 -116.720912 98 7967ft 269kts
20-Oct-17 16:56 33.148242 -116.638243 97 7974ft 245kts
20-Oct-17 16:57 33.138841 -116.559440 101 7973ft 235kts
20-Oct-17 16:58 33.137691 -116.479852 59 7699ft 258kts
20-Oct-17 16:59 33.183785 -116.491033 261 7677ft 206kts
20-Oct-17 17:00 33.160563 -116.554619 244 6803ft 237kts
20-Oct-17 17:01 33.133428 -116.622563 244 6668ft 218kts
20-Oct-17 17:02 33.109551 -116.683600 249 6667ft 194kts
20-Oct-17 17:03 33.089592 -116.746044 248 5092ft 215kts
20-Oct-17 17:04 33.072612 -116.800133 250 4485ft 176kts
20-Oct-17 17:05 33.048620 -116.846470 231 3176ft 151kts
20-Oct-17 17:06 33.035940 -116.890112 274 1802ft 141kts
20-Oct-17 17:07 33.039618 -116.918437 279 1402ft 22kts
20-Oct-17 17:08 33.040462 -116.919320 98 1401ft 10kts
20-Oct-17 17:09 33.039864 -116.915194 99 1402ft 13kts
20-Oct-17 17:10 33.040088 -116.913756 282 1402ft 0kts
20-Oct-17 17:11 33.040088 -116.913756 282 1402ft 0kts

Navigation Log

Ident Type
1. KTOA Airport
2. LIMBO Fix
3. WILMA Fix
4. SLI Navaid
5. MIDDS Fix
6. BALBO Fix
7. KRAUZ Fix
8. DANAH Fix
9. KELPS Fix
10. OCN Navaid
11. VISTA Fix
12. ROBNN Fix
13. BONDO Fix
14. JLI Navaid
15. KRNM Airport